createdAt,value
2023-04-18T03:12:52.827Z,10.25
2023-04-18T03:15:20.560Z,10.22
2023-04-18T03:17:47.991Z,10.37
2023-04-18T03:20:16.333Z,10.31
2023-04-18T03:22:42.924Z,10.20
2023-04-18T03:25:11.241Z,10.33
2023-04-18T03:27:44.610Z,10.30
2023-04-18T03:30:13.580Z,10.04
2023-04-18T03:32:42.393Z,10.20
2023-04-18T03:35:09.544Z,10.25
2023-04-18T03:37:36.191Z,10.36
2023-04-18T03:40:05.404Z,10.27
2023-04-18T03:42:32.133Z,10.38
2023-04-18T03:44:59.083Z,10.18
2023-04-18T03:47:25.959Z,10.15
2023-04-18T03:49:56.160Z,10.22
2023-04-18T03:52:24.665Z,9.99
2023-04-18T03:54:51.557Z,10.30
2023-04-18T03:57:22.217Z,10.28
2023-04-18T03:59:48.779Z,10.18
2023-04-18T04:02:15.920Z,10.37
2023-04-18T04:04:43.160Z,10.38
2023-04-18T04:07:11.941Z,10.50
2023-04-18T04:09:38.454Z,10.56
2023-04-18T04:12:06.338Z,10.72
2023-04-18T04:14:35.412Z,10.70
2023-04-18T04:17:02.549Z,10.58
2023-04-18T04:19:30.269Z,10.18
2023-04-18T04:22:07.170Z,10.61
2023-04-18T04:24:33.997Z,10.69
2023-04-18T04:27:01.684Z,10.52
2023-04-18T04:29:29.072Z,10.58
2023-04-18T04:31:59.142Z,10.62
2023-04-18T04:34:31.613Z,10.51
2023-04-18T04:37:03.878Z,10.27
2023-04-18T04:39:35.092Z,10.38
2023-04-18T04:42:19.748Z,10.43
2023-04-18T04:45:02.758Z,10.50
2023-04-18T04:47:29.398Z,10.64
2023-04-18T04:49:56.047Z,10.66
2023-04-18T04:52:22.611Z,10.70
2023-04-18T04:54:51.770Z,10.72
2023-04-18T04:57:20.228Z,10.83
2023-04-18T04:59:47.159Z,10.93
2023-04-18T05:02:13.826Z,10.85
2023-04-18T05:04:41.026Z,10.91
2023-04-18T05:07:07.672Z,10.97
2023-04-18T05:09:34.241Z,11.04
2023-04-18T05:12:01.876Z,11.06
2023-04-18T05:14:28.458Z,11.24
2023-04-18T05:16:55.651Z,11.18
2023-04-18T05:19:23.778Z,11.23
2023-04-18T05:21:50.271Z,11.22
2023-04-18T05:24:17.016Z,11.34
2023-04-18T05:26:43.733Z,11.31
2023-04-18T05:29:10.311Z,11.16
2023-04-18T05:31:36.940Z,11.35
2023-04-18T05:34:03.836Z,11.36
2023-04-18T05:36:30.470Z,11.54
2023-04-18T05:38:57.022Z,11.85
2023-04-18T05:41:23.528Z,11.94
2023-04-18T05:43:58.114Z,11.96
2023-04-18T05:46:31.332Z,11.96
2023-04-18T05:48:57.872Z,12.13
2023-04-18T05:51:24.506Z,12.13
2023-04-18T05:53:51.080Z,12.16
2023-04-18T05:56:17.621Z,11.86
2023-04-18T05:58:45.671Z,11.80
2023-04-18T06:01:14.215Z,11.69
2023-04-18T06:03:41.458Z,11.53
2023-04-18T06:06:08.503Z,11.62
2023-04-18T06:08:35.036Z,11.67
2023-04-18T06:11:01.665Z,11.61
2023-04-18T06:13:28.210Z,11.70
2023-04-18T06:15:54.889Z,11.92
2023-04-18T06:18:21.551Z,12.23
2023-04-18T06:20:48.056Z,12.15
2023-04-18T06:23:15.038Z,12.41
2023-04-18T06:25:42.664Z,12.33
2023-04-18T06:28:09.785Z,12.66
2023-04-18T06:30:36.663Z,12.81
2023-04-18T06:33:03.349Z,13.24
2023-04-18T06:35:30.984Z,13.34
2023-04-18T06:37:57.520Z,13.79
2023-04-18T06:40:24.157Z,13.86
2023-04-18T06:42:50.863Z,14.29
2023-04-18T06:45:17.514Z,14.59
2023-04-18T06:47:44.193Z,14.69
2023-04-18T06:50:10.960Z,14.58
2023-04-18T06:52:40.575Z,14.63
2023-04-18T06:55:09.137Z,14.04
2023-04-18T06:57:35.764Z,14.13
2023-04-18T07:00:03.409Z,13.79
2023-04-18T07:02:30.139Z,14.23
2023-04-18T07:04:56.884Z,13.88
2023-04-18T07:07:23.678Z,14.18
2023-04-18T07:09:50.203Z,14.50
2023-04-18T07:12:16.764Z,14.48
2023-04-18T07:14:43.387Z,14.84
2023-04-18T07:17:10.086Z,14.96
2023-04-18T07:19:36.776Z,15.03
2023-04-18T07:22:03.313Z,16.12
2023-04-18T07:24:30.196Z,15.60
2023-04-18T07:26:56.781Z,15.01
2023-04-18T07:29:23.366Z,14.33
2023-04-18T07:31:51.945Z,14.84
2023-04-18T07:34:18.609Z,18.06
2023-04-18T07:36:45.452Z,18.68
2023-04-18T07:39:11.975Z,19.19
2023-04-18T07:41:38.523Z,18.07
2023-04-18T07:44:05.278Z,17.04
2023-04-18T07:46:32.507Z,15.28
2023-04-18T07:48:59.527Z,15.58
2023-04-18T07:51:31.338Z,15.42
2023-04-18T07:53:58.712Z,15.93
2023-04-18T07:56:26.028Z,16.51
2023-04-18T07:58:53.122Z,16.68
2023-04-18T08:01:23.996Z,16.78
2023-04-18T08:03:51.797Z,16.11
2023-04-18T08:06:18.482Z,15.64
2023-04-18T08:08:44.999Z,16.23
2023-04-18T08:11:11.672Z,16.69
2023-04-18T08:13:38.234Z,16.74
2023-04-18T08:16:04.935Z,17.13
2023-04-18T08:18:31.528Z,17.57
2023-04-18T08:20:58.061Z,17.54
2023-04-18T08:23:24.583Z,18.14
2023-04-18T08:25:51.231Z,17.94
2023-04-18T08:28:17.736Z,17.68
2023-04-18T08:30:48.678Z,17.72
2023-04-18T08:33:16.152Z,18.03
2023-04-18T08:35:43.096Z,18.15
2023-04-18T08:38:09.811Z,18.25
2023-04-18T08:40:37.483Z,18.81
2023-04-18T08:43:09.325Z,17.62
2023-04-18T08:45:36.812Z,19.02
2023-04-18T08:48:03.920Z,23.19
2023-04-18T08:50:31.945Z,24.25
2023-04-18T08:53:01.011Z,22.44
2023-04-18T08:55:27.533Z,21.12
2023-04-18T08:57:55.336Z,19.58
2023-04-18T09:00:23.551Z,18.14
2023-04-18T09:02:50.879Z,16.96
2023-04-18T09:05:22.563Z,16.83
2023-04-18T09:07:50.352Z,16.00
2023-04-18T09:10:29.447Z,15.95
2023-04-18T09:12:58.728Z,16.13
2023-04-18T09:15:29.820Z,16.78
2023-04-18T09:17:59.228Z,17.62
2023-04-18T09:20:40.945Z,18.02
2023-04-18T09:23:10.446Z,17.61
2023-04-18T09:25:40.169Z,17.86
2023-04-18T09:28:27.776Z,17.75
2023-04-18T09:30:56.230Z,18.16
2023-04-18T09:33:32.936Z,18.00
2023-04-18T09:36:18.768Z,17.95
2023-04-18T09:38:45.920Z,17.70
2023-04-18T09:41:15.599Z,17.38
2023-04-18T09:43:42.144Z,16.97
2023-04-18T09:46:09.689Z,17.17
2023-04-18T09:48:36.835Z,18.26
2023-04-18T09:51:08.384Z,18.97
2023-04-18T09:53:39.463Z,19.12
2023-04-18T09:56:14.657Z,18.38
2023-04-18T09:58:42.372Z,18.01
2023-04-18T10:01:09.311Z,18.35
2023-04-18T10:03:44.604Z,17.94
2023-04-18T10:06:11.725Z,18.13
2023-04-18T10:08:39.732Z,17.68
2023-04-18T10:11:06.435Z,17.41
2023-04-18T10:13:35.178Z,17.73
2023-04-18T10:16:02.478Z,17.62
2023-04-18T10:18:29.132Z,17.55
2023-04-18T10:21:04.047Z,16.90
2023-04-18T10:23:34.712Z,16.60
2023-04-18T10:26:02.415Z,16.44
2023-04-18T10:28:58.545Z,16.70
2023-04-18T10:31:27.480Z,16.54
2023-04-18T10:34:04.785Z,16.78
2023-04-18T10:36:33.046Z,17.33
2023-04-18T10:39:21.296Z,17.82
2023-04-18T10:41:50.630Z,18.25
2023-04-18T10:44:19.764Z,19.37
2023-04-18T10:46:52.542Z,20.06
2023-04-18T10:49:26.344Z,19.24
2023-04-18T10:52:02.091Z,19.06
2023-04-18T10:54:35.964Z,18.38
2023-04-18T10:57:07.565Z,17.18
2023-04-18T10:59:39.087Z,16.57
2023-04-18T11:02:17.994Z,15.82
2023-04-18T11:04:51.295Z,16.36
2023-04-18T11:07:18.199Z,16.67
2023-04-18T11:09:54.541Z,16.76
2023-04-18T11:12:21.254Z,17.43
2023-04-18T11:14:51.885Z,17.76
2023-04-18T11:17:20.327Z,17.11
2023-04-18T11:19:47.439Z,16.85
2023-04-18T11:22:14.664Z,17.42
2023-04-18T11:24:41.321Z,17.95
2023-04-18T11:27:12.784Z,17.78
2023-04-18T11:29:39.404Z,17.59
2023-04-18T11:32:07.665Z,17.78
2023-04-18T11:34:35.826Z,17.63
2023-04-18T11:37:07.316Z,18.52
2023-04-18T11:39:36.063Z,20.19
2023-04-18T11:42:02.691Z,21.40
2023-04-18T11:44:29.235Z,20.31
2023-04-18T11:46:55.870Z,20.20
2023-04-18T11:49:29.793Z,19.69
2023-04-18T11:51:56.950Z,20.32
2023-04-18T11:54:42.943Z,19.90
2023-04-18T11:57:24.321Z,19.35
2023-04-18T11:59:51.911Z,18.16
2023-04-18T12:02:19.332Z,17.41
2023-04-18T12:05:00.049Z,17.68
2023-04-18T12:07:31.245Z,18.69
2023-04-18T12:09:57.771Z,18.95
2023-04-18T12:12:24.372Z,19.24
2023-04-18T12:15:08.207Z,19.47
2023-04-18T12:17:38.247Z,19.74
2023-04-18T12:20:07.479Z,18.67
2023-04-18T12:22:39.928Z,18.48
2023-04-18T12:25:20.049Z,18.03
2023-04-18T12:27:51.679Z,17.94
2023-04-18T12:30:22.424Z,17.42
2023-04-18T12:32:50.883Z,17.47
2023-04-18T12:35:21.709Z,17.26
2023-04-18T12:37:49.465Z,17.10
2023-04-18T12:40:16.809Z,17.10
2023-04-18T12:42:43.333Z,16.96
2023-04-18T12:45:11.173Z,16.86
2023-04-18T12:47:39.340Z,16.56
2023-04-18T12:50:11.449Z,16.68
2023-04-18T12:52:40.076Z,16.92
2023-04-18T12:55:08.038Z,16.93
2023-04-18T12:57:34.860Z,17.05
2023-04-18T13:00:01.424Z,16.90
2023-04-18T13:02:29.222Z,16.53
2023-04-18T13:04:57.390Z,16.85
2023-04-18T13:07:24.657Z,16.52
2023-04-18T13:09:51.180Z,16.18
2023-04-18T13:12:17.664Z,16.31
2023-04-18T13:14:44.288Z,16.09
2023-04-18T13:17:10.848Z,16.07
2023-04-18T13:19:37.347Z,15.96
2023-04-18T13:22:04.620Z,15.97
2023-04-18T13:24:31.490Z,16.17
2023-04-18T13:26:58.114Z,16.03
2023-04-18T13:29:24.644Z,16.17
2023-04-18T13:31:51.208Z,16.07
2023-04-18T13:34:17.786Z,16.05
2023-04-18T13:36:44.388Z,15.84
2023-04-18T13:39:11.601Z,15.69
2023-04-18T13:41:38.235Z,15.11
2023-04-18T13:44:04.903Z,15.33
2023-04-18T13:46:31.488Z,15.39
2023-04-18T13:48:58.088Z,15.55
2023-04-18T13:51:24.762Z,15.39
2023-04-18T13:53:51.677Z,15.60
2023-04-18T13:56:18.233Z,15.81
2023-04-18T13:58:44.757Z,15.85
2023-04-18T14:01:11.931Z,15.90
2023-04-18T14:03:40.662Z,16.01
2023-04-18T14:06:08.843Z,15.98
2023-04-18T14:08:35.367Z,16.23
2023-04-18T14:11:01.889Z,16.41
2023-04-18T14:13:28.424Z,15.95
2023-04-18T14:15:55.075Z,15.84
2023-04-18T14:18:21.871Z,16.00
2023-04-18T14:20:48.616Z,15.99
2023-04-18T14:23:15.926Z,16.63
2023-04-18T14:25:42.959Z,16.48
2023-04-18T14:28:11.391Z,16.72
2023-04-18T14:30:39.758Z,16.83
2023-04-18T14:33:07.365Z,16.36
2023-04-18T14:35:33.955Z,16.19
2023-04-18T14:38:00.526Z,15.93
2023-04-18T14:40:27.263Z,15.96
2023-04-18T14:42:53.797Z,15.68
2023-04-18T14:45:20.314Z,15.55
2023-04-18T14:47:46.856Z,15.26
2023-04-18T14:50:13.714Z,15.30
2023-04-18T14:52:40.754Z,15.64
2023-04-18T14:55:09.192Z,15.78
2023-04-18T14:57:37.205Z,15.70
2023-04-18T15:00:10.213Z,15.52
2023-04-18T15:02:37.376Z,15.93
2023-04-18T15:05:04.576Z,16.13
2023-04-18T15:07:31.114Z,16.04
2023-04-18T15:09:57.649Z,16.43
2023-04-18T15:12:24.175Z,15.89
2023-04-18T15:14:51.319Z,15.36
2023-04-18T15:17:17.816Z,16.17
2023-04-18T15:19:44.335Z,16.26
2023-04-18T15:22:11.074Z,15.81
2023-04-18T15:25:11.291Z,15.79
2023-04-18T15:27:37.846Z,15.04
2023-04-18T15:30:05.064Z,15.73
2023-04-18T15:32:32.663Z,15.44
2023-04-18T15:34:59.238Z,15.89
2023-04-18T15:37:26.305Z,15.99
2023-04-18T15:39:52.933Z,15.84
2023-04-18T15:42:19.492Z,15.96
2023-04-18T15:44:46.273Z,16.16
2023-04-18T15:47:12.862Z,16.16
2023-04-18T15:49:39.560Z,16.40
2023-04-18T15:52:06.861Z,15.99
2023-04-18T15:54:33.493Z,16.64
2023-04-18T15:57:00.143Z,16.19
2023-04-18T15:59:26.753Z,16.25
2023-04-18T16:01:53.364Z,15.98
2023-04-18T16:04:20.128Z,15.11
2023-04-18T16:06:46.744Z,15.11
2023-04-18T16:09:14.433Z,15.34
2023-04-18T16:11:41.014Z,15.40
2023-04-18T16:14:07.590Z,15.16
2023-04-18T16:16:34.417Z,15.04
2023-04-18T16:19:01.057Z,14.84
2023-04-18T16:21:28.259Z,14.99
2023-04-18T16:23:54.779Z,14.96
2023-04-18T16:26:21.562Z,14.88
2023-04-18T16:28:48.561Z,14.61
2023-04-18T16:31:16.080Z,14.71
2023-04-18T16:33:43.086Z,14.41
2023-04-18T16:36:09.823Z,14.36
2023-04-18T16:38:36.357Z,14.27
2023-04-18T16:41:03.629Z,14.30
2023-04-18T16:43:36.431Z,14.31
2023-04-18T16:46:03.575Z,14.32
2023-04-18T16:48:30.202Z,14.26
2023-04-18T16:50:57.223Z,14.15
2023-04-18T16:53:24.606Z,13.97
2023-04-18T16:55:53.028Z,13.86
2023-04-18T16:58:19.953Z,13.91
2023-04-18T17:00:47.260Z,13.60
2023-04-18T17:03:14.189Z,13.94
2023-04-18T17:06:01.399Z,13.79
2023-04-18T17:08:49.162Z,13.83
2023-04-18T17:11:39.600Z,13.72
2023-04-18T17:14:26.765Z,13.83
2023-04-18T17:17:13.746Z,13.71
2023-04-18T17:20:01.226Z,13.36
2023-04-18T17:22:48.160Z,13.49
2023-04-18T17:25:35.280Z,13.47
2023-04-18T17:28:23.614Z,13.39
2023-04-18T17:31:14.123Z,13.46
2023-04-18T17:34:01.068Z,13.30
2023-04-18T17:36:49.395Z,13.06
2023-04-18T17:39:36.301Z,13.14
2023-04-18T17:42:23.230Z,13.13
2023-04-18T17:45:10.626Z,12.78
2023-04-18T17:47:59.420Z,12.95
2023-04-18T17:50:46.528Z,13.08
2023-04-18T17:53:33.542Z,12.96
2023-04-18T17:56:22.073Z,12.80
2023-04-18T17:59:09.836Z,12.88
2023-04-18T18:01:56.989Z,12.83
2023-04-18T18:04:44.228Z,13.01
2023-04-18T18:07:34.642Z,12.49
2023-04-18T18:10:23.728Z,12.73
2023-04-18T18:13:10.940Z,12.93
2023-04-18T18:15:58.037Z,12.93
2023-04-18T18:18:49.165Z,12.67
2023-04-18T18:21:36.508Z,12.59
2023-04-18T18:24:25.544Z,12.49
2023-04-18T18:27:12.381Z,12.67
2023-04-18T18:29:59.301Z,12.67
2023-04-18T18:32:46.399Z,12.86
2023-04-18T18:35:33.393Z,12.79
2023-04-18T18:38:20.374Z,12.67
2023-04-18T18:41:07.265Z,12.85
2023-04-18T18:43:54.182Z,12.68
2023-04-18T18:46:42.715Z,12.60
2023-04-18T18:49:30.220Z,12.63
2023-04-18T18:52:17.108Z,12.75
2023-04-18T18:55:04.545Z,12.75
2023-04-18T18:57:51.453Z,12.39
2023-04-18T19:00:38.510Z,12.48
2023-04-18T19:03:25.736Z,12.35
2023-04-18T19:06:12.814Z,12.44
2023-04-18T19:08:59.787Z,12.38
2023-04-18T19:11:46.922Z,12.09
2023-04-18T19:14:34.069Z,12.09
2023-04-18T19:17:24.723Z,12.37
2023-04-18T19:20:11.791Z,12.16
2023-04-18T19:22:58.734Z,12.43
2023-04-18T19:25:46.586Z,12.20
2023-04-18T19:28:33.548Z,12.31
2023-04-18T19:31:20.440Z,12.13
